sensor_id;sensor_type;location;lat;lon;timestamp;pressure;altitude;pressure_sealevel;temperature;humidity
27643;BME280;15053;48.618;10.024;2022-12-20T00:00:50;94839.94;;;1.52;95.37
27643;BME280;15053;48.618;10.024;2022-12-20T00:03:17;94850.34;;;1.57;94.90
27643;BME280;15053;48.618;10.024;2022-12-20T00:05:46;94844.78;;;1.60;95.08
27643;BME280;15053;48.618;10.024;2022-12-20T00:08:13;94845.56;;;1.60;94.98
27643;BME280;15053;48.618;10.024;2022-12-20T00:10:42;94838.72;;;1.54;94.98
27643;BME280;15053;48.618;10.024;2022-12-20T00:13:10;94854.91;;;1.55;94.74
27643;BME280;15053;48.618;10.024;2022-12-20T00:15:37;94855.75;;;1.49;93.92
27643;BME280;15053;48.618;10.024;2022-12-20T00:18:04;94848.94;;;1.43;93.73
27643;BME280;15053;48.618;10.024;2022-12-20T00:20:31;94851.94;;;1.40;93.92
27643;BME280;15053;48.618;10.024;2022-12-20T00:22:57;94853.91;;;1.38;94.17
27643;BME280;15053;48.618;10.024;2022-12-20T00:25:24;94827.56;;;1.31;93.66
27643;BME280;15053;48.618;10.024;2022-12-20T00:27:50;94827.56;;;1.31;93.62
27643;BME280;15053;48.618;10.024;2022-12-20T00:30:17;94828.00;;;1.28;93.59
27643;BME280;15053;48.618;10.024;2022-12-20T00:32:45;94839.84;;;1.29;93.65
27643;BME280;15053;48.618;10.024;2022-12-20T00:35:12;94826.22;;;1.28;93.16
27643;BME280;15053;48.618;10.024;2022-12-20T00:37:38;94818.16;;;1.25;93.64
27643;BME280;15053;48.618;10.024;2022-12-20T00:40:05;94821.75;;;1.24;93.66
27643;BME280;15053;48.618;10.024;2022-12-20T00:42:32;94819.75;;;1.26;93.80
27643;BME280;15053;48.618;10.024;2022-12-20T00:44:58;94822.88;;;1.28;93.71
27643;BME280;15053;48.618;10.024;2022-12-20T00:47:25;94827.56;;;1.31;94.04
27643;BME280;15053;48.618;10.024;2022-12-20T00:49:51;94829.16;;;1.32;93.94
27643;BME280;15053;48.618;10.024;2022-12-20T00:52:18;94828.13;;;1.33;94.10
27643;BME280;15053;48.618;10.024;2022-12-20T00:54:44;94824.00;;;1.32;93.76
27643;BME280;15053;48.618;10.024;2022-12-20T00:57:11;94814.19;;;1.29;93.35
27643;BME280;15053;48.618;10.024;2022-12-20T00:59:37;94820.66;;;1.31;93.17
27643;BME280;15053;48.618;10.024;2022-12-20T01:02:04;94815.72;;;1.30;93.76
27643;BME280;15053;48.618;10.024;2022-12-20T01:04:31;94820.53;;;1.26;93.78
27643;BME280;15053;48.618;10.024;2022-12-20T01:06:57;94833.56;;;1.25;93.20
27643;BME280;15053;48.618;10.024;2022-12-20T01:09:23;94836.78;;;1.20;93.14
27643;BME280;15053;48.618;10.024;2022-12-20T01:11:50;94843.09;;;1.17;93.38
27643;BME280;15053;48.618;10.024;2022-12-20T01:14:16;94838.41;;;1.14;92.91
27643;BME280;15053;48.618;10.024;2022-12-20T01:16:45;94840.41;;;1.12;92.71
27643;BME280;15053;48.618;10.024;2022-12-20T01:19:15;94840.84;;;1.09;92.26
27643;BME280;15053;48.618;10.024;2022-12-20T01:21:42;94835.91;;;1.08;93.04
27643;BME280;15053;48.618;10.024;2022-12-20T01:24:17;94831.19;;;1.05;92.66
27643;BME280;15053;48.618;10.024;2022-12-20T01:26:44;94823.72;;;1.03;92.86
27643;BME280;15053;48.618;10.024;2022-12-20T01:29:12;94814.81;;;1.06;92.22
27643;BME280;15053;48.618;10.024;2022-12-20T01:31:40;94806.34;;;1.05;92.82
27643;BME280;15053;48.618;10.024;2022-12-20T01:34:08;94819.72;;;1.07;92.47
27643;BME280;15053;48.618;10.024;2022-12-20T01:36:36;94816.97;;;1.09;93.34
27643;BME280;15053;48.618;10.024;2022-12-20T01:39:14;94818.31;;;1.11;93.28
27643;BME280;15053;48.618;10.024;2022-12-20T01:41:43;94813.19;;;1.11;93.44
27643;BME280;15053;48.618;10.024;2022-12-20T01:46:45;94808.47;;;1.27;93.99
27643;BME280;15053;48.618;10.024;2022-12-20T01:52:09;94816.59;;;1.42;93.81
27643;BME280;15053;48.618;10.024;2022-12-20T01:54:44;94823.00;;;1.51;94.03
27643;BME280;15053;48.618;10.024;2022-12-20T01:57:16;94819.34;;;1.58;94.38
27643;BME280;15053;48.618;10.024;2022-12-20T01:59:45;94813.84;;;1.55;94.30
27643;BME280;15053;48.618;10.024;2022-12-20T02:02:13;94818.56;;;1.58;94.48
27643;BME280;15053;48.618;10.024;2022-12-20T02:04:40;94831.94;;;1.60;93.96
27643;BME280;15053;48.618;10.024;2022-12-20T02:07:07;94824.91;;;1.55;93.82
27643;BME280;15053;48.618;10.024;2022-12-20T02:09:37;94826.13;;;1.53;94.04
27643;BME280;15053;48.618;10.024;2022-12-20T02:12:10;94821.97;;;1.52;93.40
27643;BME280;15053;48.618;10.024;2022-12-20T02:17:43;94805.50;;;1.59;94.25
27643;BME280;15053;48.618;10.024;2022-12-20T02:20:59;94808.22;;;1.64;94.15
27643;BME280;15053;48.618;10.024;2022-12-20T02:29:17;94810.47;;;1.72;94.73
27643;BME280;15053;48.618;10.024;2022-12-20T02:31:54;94806.56;;;1.70;94.21
27643;BME280;15053;48.618;10.024;2022-12-20T02:34:23;94795.28;;;1.71;94.21
27643;BME280;15053;48.618;10.024;2022-12-20T02:36:51;94787.13;;;1.74;94.30
27643;BME280;15053;48.618;10.024;2022-12-20T02:39:18;94784.38;;;1.75;94.50
27643;BME280;15053;48.618;10.024;2022-12-20T02:41:50;94783.69;;;1.80;94.72
27643;BME280;15053;48.618;10.024;2022-12-20T02:44:19;94780.69;;;1.83;94.60
27643;BME280;15053;48.618;10.024;2022-12-20T02:47:09;94775.31;;;1.85;94.42
27643;BME280;15053;48.618;10.024;2022-12-20T02:49:39;94779.47;;;1.86;94.91
27643;BME280;15053;48.618;10.024;2022-12-20T02:52:08;94764.06;;;1.86;94.79
27643;BME280;15053;48.618;10.024;2022-12-20T02:54:37;94756.13;;;1.87;94.86
27643;BME280;15053;48.618;10.024;2022-12-20T02:57:13;94754.91;;;1.90;95.00
27643;BME280;15053;48.618;10.024;2022-12-20T03:02:31;94754.69;;;1.91;94.31
27643;BME280;15053;48.618;10.024;2022-12-20T03:05:17;94748.66;;;1.86;94.61
27643;BME280;15053;48.618;10.024;2022-12-20T03:07:45;94740.06;;;1.80;94.88
27643;BME280;15053;48.618;10.024;2022-12-20T03:10:12;94736.16;;;1.77;93.99
27643;BME280;15053;48.618;10.024;2022-12-20T03:12:39;94737.38;;;1.75;94.61
27643;BME280;15053;48.618;10.024;2022-12-20T03:15:06;94742.06;;;1.78;94.58
27643;BME280;15053;48.618;10.024;2022-12-20T03:17:32;94744.41;;;1.79;95.54
27643;BME280;15053;48.618;10.024;2022-12-20T03:19:59;94751.91;;;1.81;95.44
27643;BME280;15053;48.618;10.024;2022-12-20T03:22:25;94737.84;;;1.84;95.43
27643;BME280;15053;48.618;10.024;2022-12-20T03:24:52;94750.25;;;1.87;95.60
27643;BME280;15053;48.618;10.024;2022-12-20T03:27:19;94740.28;;;1.90;95.74
27643;BME280;15053;48.618;10.024;2022-12-20T03:29:45;94744.97;;;1.93;95.50
27643;BME280;15053;48.618;10.024;2022-12-20T03:32:12;94739.19;;;1.98;95.60
27643;BME280;15053;48.618;10.024;2022-12-20T03:34:42;94749.69;;;1.96;95.70
27643;BME280;15053;48.618;10.024;2022-12-20T03:37:10;94745.53;;;1.84;94.66
27643;BME280;15053;48.618;10.024;2022-12-20T03:39:36;94768.16;;;1.75;94.59
27643;BME280;15053;48.618;10.024;2022-12-20T03:42:03;94759.66;;;1.63;93.66
27643;BME280;15053;48.618;10.024;2022-12-20T03:44:30;94746.13;;;1.56;93.39
27643;BME280;15053;48.618;10.024;2022-12-20T03:46:57;94736.97;;;1.60;94.34
27643;BME280;15053;48.618;10.024;2022-12-20T03:49:23;94744.59;;;1.66;93.94
27643;BME280;15053;48.618;10.024;2022-12-20T03:51:50;94736.47;;;1.69;94.13
27643;BME280;15053;48.618;10.024;2022-12-20T03:54:17;94731.00;;;1.77;94.19
27643;BME280;15053;48.618;10.024;2022-12-20T03:57:04;94743.63;;;1.79;94.47
27643;BME280;15053;48.618;10.024;2022-12-20T03:59:31;94746.06;;;1.74;94.04
27643;BME280;15053;48.618;10.024;2022-12-20T04:01:58;94731.31;;;1.69;94.01
27643;BME280;15053;48.618;10.024;2022-12-20T04:04:28;94721.84;;;1.70;94.45
27643;BME280;15053;48.618;10.024;2022-12-20T04:06:54;94721.84;;;1.70;94.25
27643;BME280;15053;48.618;10.024;2022-12-20T04:09:21;94711.34;;;1.71;94.40
27643;BME280;15053;48.618;10.024;2022-12-20T04:11:52;94715.25;;;1.74;94.21
27643;BME280;15053;48.618;10.024;2022-12-20T04:14:18;94715.81;;;1.76;94.21
27643;BME280;15053;48.618;10.024;2022-12-20T04:16:45;94719.59;;;1.73;94.65
27643;BME280;15053;48.618;10.024;2022-12-20T04:19:12;94713.00;;;1.66;94.08
27643;BME280;15053;48.618;10.024;2022-12-20T04:21:42;94715.47;;;1.61;93.97
27643;BME280;15053;48.618;10.024;2022-12-20T04:24:10;94720.59;;;1.61;94.05
27643;BME280;15053;48.618;10.024;2022-12-20T04:26:48;94717.03;;;1.62;93.93
27643;BME280;15053;48.618;10.024;2022-12-20T04:29:15;94718.16;;;1.66;93.85
27643;BME280;15053;48.618;10.024;2022-12-20T04:31:43;94703.28;;;1.68;94.12
27643;BME280;15053;48.618;10.024;2022-12-20T04:34:10;94708.78;;;1.71;94.40
27643;BME280;15053;48.618;10.024;2022-12-20T04:36:37;94715.81;;;1.76;94.63
27643;BME280;15053;48.618;10.024;2022-12-20T04:39:09;94705.69;;;1.81;94.99
27643;BME280;15053;48.618;10.024;2022-12-20T04:41:58;94691.38;;;1.85;95.04
27643;BME280;15053;48.618;10.024;2022-12-20T04:44:24;94689.97;;;1.89;95.04
27643;BME280;15053;48.618;10.024;2022-12-20T04:46:52;94689.28;;;1.94;95.19
27643;BME280;15053;48.618;10.024;2022-12-20T04:49:18;94692.19;;;1.97;95.08
27643;BME280;15053;48.618;10.024;2022-12-20T04:51:45;94699.22;;;2.02;95.79
27643;BME280;15053;48.618;10.024;2022-12-20T04:54:14;94691.06;;;2.05;95.72
27643;BME280;15053;48.618;10.024;2022-12-20T04:56:47;94685.50;;;2.08;95.65
27643;BME280;15053;48.618;10.024;2022-12-20T04:59:18;94681.25;;;2.13;95.51
27643;BME280;15053;48.618;10.024;2022-12-20T05:01:48;94681.34;;;2.18;95.78
27643;BME280;15053;48.618;10.024;2022-12-20T05:04:26;94688.06;;;2.19;95.51
27643;BME280;15053;48.618;10.024;2022-12-20T05:07:02;94691.19;;;2.21;95.87
27643;BME280;15053;48.618;10.024;2022-12-20T05:09:29;94693.75;;;2.21;96.14
27643;BME280;15053;48.618;10.024;2022-12-20T05:11:55;94697.31;;;2.20;95.92
27643;BME280;15053;48.618;10.024;2022-12-20T05:14:22;94694.75;;;2.20;95.95
27643;BME280;15053;48.618;10.024;2022-12-20T05:16:49;94687.16;;;2.25;95.93
27643;BME280;15053;48.618;10.024;2022-12-20T05:19:16;94685.25;;;2.32;95.68
27643;BME280;15053;48.618;10.024;2022-12-20T05:21:43;94665.94;;;2.42;96.16
27643;BME280;15053;48.618;10.024;2022-12-20T05:24:29;94659.41;;;2.51;96.42
27643;BME280;15053;48.618;10.024;2022-12-20T05:27:23;94667.91;;;2.63;96.70
27643;BME280;15053;48.618;10.024;2022-12-20T05:29:50;94667.75;;;2.69;96.67
27643;BME280;15053;48.618;10.024;2022-12-20T05:32:17;94664.97;;;2.71;97.11
27643;BME280;15053;48.618;10.024;2022-12-20T05:34:43;94653.78;;;2.77;96.61
27643;BME280;15053;48.618;10.024;2022-12-20T05:37:10;94653.63;;;2.83;96.78
27643;BME280;15053;48.618;10.024;2022-12-20T05:39:39;94659.44;;;2.90;96.91
27643;BME280;15053;48.618;10.024;2022-12-20T05:42:11;94659.75;;;2.94;96.47
27643;BME280;15053;48.618;10.024;2022-12-20T05:44:38;94655.25;;;3.01;96.54
27643;BME280;15053;48.618;10.024;2022-12-20T05:47:04;94666.88;;;3.04;96.47
27643;BME280;15053;48.618;10.024;2022-12-20T05:49:34;94662.28;;;3.06;96.46
27643;BME280;15053;48.618;10.024;2022-12-20T05:52:03;94655.44;;;3.11;96.52
27643;BME280;15053;48.618;10.024;2022-12-20T05:54:30;94648.25;;;3.13;95.95
27643;BME280;15053;48.618;10.024;2022-12-20T05:57:12;94629.78;;;3.16;95.63
27643;BME280;15053;48.618;10.024;2022-12-20T05:59:40;94634.25;;;3.21;96.36
27643;BME280;15053;48.618;10.024;2022-12-20T06:02:20;94635.34;;;3.25;95.97
27643;BME280;15053;48.618;10.024;2022-12-20T06:04:51;94647.53;;;3.29;96.00
27643;BME280;15053;48.618;10.024;2022-12-20T06:07:21;94631.31;;;3.29;95.89
27643;BME280;15053;48.618;10.024;2022-12-20T06:09:51;94629.28;;;3.31;95.75
27643;BME280;15053;48.618;10.024;2022-12-20T06:12:23;94631.94;;;3.36;96.10
27643;BME280;15053;48.618;10.024;2022-12-20T06:14:50;94637.41;;;3.39;96.04
27643;BME280;15053;48.618;10.024;2022-12-20T06:17:18;94638.03;;;3.46;95.47
27643;BME280;15053;48.618;10.024;2022-12-20T06:19:45;94639.13;;;3.50;95.97
27643;BME280;15053;48.618;10.024;2022-12-20T06:22:14;94637.56;;;3.49;95.13
27643;BME280;15053;48.618;10.024;2022-12-20T06:24:45;94630.41;;;3.51;95.44
27643;BME280;15053;48.618;10.024;2022-12-20T06:27:17;94624.47;;;3.51;96.06
27643;BME280;15053;48.618;10.024;2022-12-20T06:29:46;94625.25;;;3.51;95.56
27643;BME280;15053;48.618;10.024;2022-12-20T06:32:22;94622.19;;;3.54;95.02
27643;BME280;15053;48.618;10.024;2022-12-20T06:34:50;94621.44;;;3.54;95.12
27643;BME280;15053;48.618;10.024;2022-12-20T06:37:16;94622.75;;;3.56;95.47
27643;BME280;15053;48.618;10.024;2022-12-20T06:39:43;94625.09;;;3.58;95.80
27643;BME280;15053;48.618;10.024;2022-12-20T06:42:09;94629.78;;;3.61;94.91
27643;BME280;15053;48.618;10.024;2022-12-20T06:44:38;94622.59;;;3.63;95.24
27643;BME280;15053;48.618;10.024;2022-12-20T06:47:04;94625.94;;;3.64;95.34
27643;BME280;15053;48.618;10.024;2022-12-20T06:49:31;94618.75;;;3.66;95.76
27643;BME280;15053;48.618;10.024;2022-12-20T06:51:58;94610.03;;;3.67;94.90
27643;BME280;15053;48.618;10.024;2022-12-20T06:54:38;94624.00;;;3.71;94.86
27643;BME280;15053;48.618;10.024;2022-12-20T06:57:04;94630.16;;;3.70;94.92
27643;BME280;15053;48.618;10.024;2022-12-20T06:59:32;94634.00;;;3.67;95.14
27643;BME280;15053;48.618;10.024;2022-12-20T07:01:59;94635.25;;;3.65;94.53
27643;BME280;15053;48.618;10.024;2022-12-20T07:04:26;94639.28;;;3.61;94.40
27643;BME280;15053;48.618;10.024;2022-12-20T07:06:52;94637.63;;;3.54;93.90
27643;BME280;15053;48.618;10.024;2022-12-20T07:09:19;94639.66;;;3.52;94.36
27643;BME280;15053;48.618;10.024;2022-12-20T07:11:45;94637.56;;;3.49;94.65
27643;BME280;15053;48.618;10.024;2022-12-20T07:14:12;94637.03;;;3.47;94.11
27643;BME280;15053;48.618;10.024;2022-12-20T07:16:38;94625.16;;;3.46;94.04
27643;BME280;15053;48.618;10.024;2022-12-20T07:19:11;94634.44;;;3.47;93.98
27643;BME280;15053;48.618;10.024;2022-12-20T07:21:37;94616.44;;;3.47;94.51
27643;BME280;15053;48.618;10.024;2022-12-20T07:24:04;94613.84;;;3.47;94.77
27643;BME280;15053;48.618;10.024;2022-12-20T07:26:31;94619.72;;;3.43;94.35
27643;BME280;15053;48.618;10.024;2022-12-20T07:28:58;94619.47;;;3.44;94.87
27643;BME280;15053;48.618;10.024;2022-12-20T07:31:24;94613.84;;;3.47;94.73
27643;BME280;15053;48.618;10.024;2022-12-20T07:33:51;94623.69;;;3.50;94.58
27643;BME280;15053;48.618;10.024;2022-12-20T07:36:18;94621.66;;;3.52;94.56
27643;BME280;15053;48.618;10.024;2022-12-20T07:38:44;94626.25;;;3.50;94.82
27643;BME280;15053;48.618;10.024;2022-12-20T07:41:13;94630.75;;;3.43;94.18
27643;BME280;15053;48.618;10.024;2022-12-20T07:43:40;94630.59;;;3.33;94.12
27643;BME280;15053;48.618;10.024;2022-12-20T07:46:08;94629.66;;;3.23;93.53
27643;BME280;15053;48.618;10.024;2022-12-20T07:48:37;94613.34;;;3.17;93.26
27643;BME280;15053;48.618;10.024;2022-12-20T07:51:09;94614.06;;;3.13;93.39
27643;BME280;15053;48.618;10.024;2022-12-20T07:53:39;94600.88;;;3.09;93.32
27643;BME280;15053;48.618;10.024;2022-12-20T07:56:09;94613.47;;;3.11;93.24
27643;BME280;15053;48.618;10.024;2022-12-20T07:58:38;94616.84;;;3.11;93.24
27643;BME280;15053;48.618;10.024;2022-12-20T08:01:06;94626.13;;;3.12;93.30
27643;BME280;15053;48.618;10.024;2022-12-20T08:03:43;94623.66;;;3.17;93.84
27643;BME280;15053;48.618;10.024;2022-12-20T08:06:11;94620.47;;;3.27;93.60
27643;BME280;15053;48.618;10.024;2022-12-20T08:08:43;94625.53;;;3.38;93.82
27643;BME280;15053;48.618;10.024;2022-12-20T08:11:11;94627.72;;;3.46;94.31
27643;BME280;15053;48.618;10.024;2022-12-20T08:13:38;94632.28;;;3.56;94.26
27643;BME280;15053;48.618;10.024;2022-12-20T08:16:11;94624.94;;;3.65;93.67
27643;BME280;15053;48.618;10.024;2022-12-20T08:18:38;94629.22;;;3.76;94.00
27643;BME280;15053;48.618;10.024;2022-12-20T08:21:05;94615.88;;;3.79;93.98
27643;BME280;15053;48.618;10.024;2022-12-20T08:23:31;94618.53;;;3.84;93.69
27643;BME280;15053;48.618;10.024;2022-12-20T08:26:01;94624.69;;;3.83;93.72
27643;BME280;15053;48.618;10.024;2022-12-20T08:28:27;94613.53;;;3.77;92.99
27643;BME280;15053;48.618;10.024;2022-12-20T08:31:01;94614.31;;;3.78;92.72
27643;BME280;15053;48.618;10.024;2022-12-20T08:33:28;94605.50;;;3.74;92.32
27643;BME280;15053;48.618;10.024;2022-12-20T08:35:58;94605.50;;;3.74;92.25
27643;BME280;15053;48.618;10.024;2022-12-20T08:38:27;94617.44;;;3.80;92.05
27643;BME280;15053;48.618;10.024;2022-12-20T08:40:53;94624.94;;;3.81;92.16
27643;BME280;15053;48.618;10.024;2022-12-20T08:43:20;94626.78;;;3.86;92.01
27643;BME280;15053;48.618;10.024;2022-12-20T08:45:53;94624.28;;;3.91;91.59
27643;BME280;15053;48.618;10.024;2022-12-20T08:48:21;94628.16;;;4.10;91.36
27643;BME280;15053;48.618;10.024;2022-12-20T08:50:53;94629.72;;;4.28;91.20
27643;BME280;15053;48.618;10.024;2022-12-20T08:53:20;94626.53;;;4.42;90.67
27643;BME280;15053;48.618;10.024;2022-12-20T08:55:46;94611.72;;;4.54;91.42
27643;BME280;15053;48.618;10.024;2022-12-20T08:58:13;94611.84;;;4.64;90.40
27643;BME280;15053;48.618;10.024;2022-12-20T09:00:40;94612.75;;;4.75;89.49
27643;BME280;15053;48.618;10.024;2022-12-20T09:03:07;94610.28;;;4.85;90.21
27643;BME280;15053;48.618;10.024;2022-12-20T09:05:35;94604.69;;;4.93;89.58
27643;BME280;15053;48.618;10.024;2022-12-20T09:08:02;94607.09;;;5.00;88.58
27643;BME280;15053;48.618;10.024;2022-12-20T09:10:28;94606.34;;;5.04;88.64
27643;BME280;15053;48.618;10.024;2022-12-20T09:12:55;94608.66;;;5.06;88.35
27643;BME280;15053;48.618;10.024;2022-12-20T09:15:21;94597.63;;;5.10;87.91
27643;BME280;15053;48.618;10.024;2022-12-20T09:17:48;94588.13;;;5.16;87.74
27643;BME280;15053;48.618;10.024;2022-12-20T09:20:14;94593.63;;;5.24;87.29
27643;BME280;15053;48.618;10.024;2022-12-20T09:22:41;94593.22;;;5.38;86.57
27643;BME280;15053;48.618;10.024;2022-12-20T09:25:07;94586.09;;;5.50;86.62
27643;BME280;15053;48.618;10.024;2022-12-20T09:27:34;94591.06;;;5.56;86.30
27643;BME280;15053;48.618;10.024;2022-12-20T09:30:00;94592.13;;;5.60;86.17
27643;BME280;15053;48.618;10.024;2022-12-20T09:32:27;94595.47;;;5.61;85.63
27643;BME280;15053;48.618;10.024;2022-12-20T09:34:53;94592.13;;;5.60;85.34
27643;BME280;15053;48.618;10.024;2022-12-20T09:37:21;94590.06;;;5.62;84.60
27643;BME280;15053;48.618;10.024;2022-12-20T09:39:48;94592.66;;;5.62;85.33
27643;BME280;15053;48.618;10.024;2022-12-20T09:42:25;94590.06;;;5.62;85.24
27643;BME280;15053;48.618;10.024;2022-12-20T09:44:55;94585.91;;;5.61;85.29
27643;BME280;15053;48.618;10.024;2022-12-20T09:47:25;94582.28;;;5.57;84.57
27643;BME280;15053;48.618;10.024;2022-12-20T09:49:54;94588.22;;;5.58;84.44
27643;BME280;15053;48.618;10.024;2022-12-20T09:55:55;94575.59;;;5.61;84.00
27643;BME280;15053;48.618;10.024;2022-12-20T10:01:29;94567.63;;;5.68;83.82
27643;BME280;15053;48.618;10.024;2022-12-20T10:04:18;94556.53;;;5.72;84.42
27643;BME280;15053;48.618;10.024;2022-12-20T10:10:10;94553.50;;;5.80;84.19
27643;BME280;15053;48.618;10.024;2022-12-20T10:13:24;94558.22;;;5.88;83.04
27643;BME280;15053;48.618;10.024;2022-12-20T10:15:51;94557.28;;;6.05;83.20
27643;BME280;15053;48.618;10.024;2022-12-20T10:18:47;94556.31;;;6.21;83.39
27643;BME280;15053;48.618;10.024;2022-12-20T10:21:37;94554.34;;;6.43;82.67
27643;BME280;15053;48.618;10.024;2022-12-20T10:24:28;94539.94;;;6.62;81.58
27643;BME280;15053;48.618;10.024;2022-12-20T10:26:57;94543.06;;;6.74;81.48
27643;BME280;15053;48.618;10.024;2022-12-20T10:29:30;94528.88;;;6.92;81.04
27643;BME280;15053;48.618;10.024;2022-12-20T10:31:58;94528.13;;;7.06;81.05
27643;BME280;15053;48.618;10.024;2022-12-20T10:34:26;94520.09;;;7.23;80.24
27643;BME280;15053;48.618;10.024;2022-12-20T10:37:12;94521.41;;;7.41;79.57
27643;BME280;15053;48.618;10.024;2022-12-20T10:39:42;94508.94;;;7.48;79.83
27643;BME280;15053;48.618;10.024;2022-12-20T10:44:49;94510.75;;;7.62;78.09
27643;BME280;15053;48.618;10.024;2022-12-20T10:47:37;94506.34;;;7.53;77.06
27643;BME280;15053;48.618;10.024;2022-12-20T10:52:44;94494.47;;;7.32;77.00
27643;BME280;15053;48.618;10.024;2022-12-20T10:55:33;94481.50;;;7.27;77.77
27643;BME280;15053;48.618;10.024;2022-12-20T10:58:22;94501.72;;;7.20;77.54
27643;BME280;15053;48.618;10.024;2022-12-20T11:01:25;94494.44;;;7.11;77.51
27643;BME280;15053;48.618;10.024;2022-12-20T11:04:02;94488.25;;;6.97;78.07
27643;BME280;15053;48.618;10.024;2022-12-20T11:06:41;94489.78;;;6.88;78.61
27643;BME280;15053;48.618;10.024;2022-12-20T11:09:23;94479.94;;;6.75;78.24
27643;BME280;15053;48.618;10.024;2022-12-20T11:11:58;94469.81;;;6.64;78.89
27643;BME280;15053;48.618;10.024;2022-12-20T11:14:26;94464.38;;;6.60;78.52
27643;BME280;15053;48.618;10.024;2022-12-20T11:17:22;94459.47;;;6.59;79.86
27643;BME280;15053;48.618;10.024;2022-12-20T11:20:13;94452.50;;;6.59;80.16
27643;BME280;15053;48.618;10.024;2022-12-20T11:23:12;94458.69;;;6.63;80.57
27643;BME280;15053;48.618;10.024;2022-12-20T11:26:22;94458.97;;;6.62;80.20
27643;BME280;15053;48.618;10.024;2022-12-20T11:29:06;94459.47;;;6.59;80.42
27643;BME280;15053;48.618;10.024;2022-12-20T11:32:00;94467.47;;;6.57;80.36
27643;BME280;15053;48.618;10.024;2022-12-20T11:37:24;94450.38;;;6.51;81.14
27643;BME280;15053;48.618;10.024;2022-12-20T11:40:21;94449.34;;;6.52;80.90
27643;BME280;15053;48.618;10.024;2022-12-20T11:43:03;94433.06;;;6.51;80.78
27643;BME280;15053;48.618;10.024;2022-12-20T11:45:58;94439.56;;;6.59;81.32
27643;BME280;15053;48.618;10.024;2022-12-20T11:51:21;94425.06;;;6.73;80.46
27643;BME280;15053;48.618;10.024;2022-12-20T11:54:00;94416.78;;;6.81;80.20
27643;BME280;15053;48.618;10.024;2022-12-20T11:56:45;94414.97;;;6.92;80.67
27643;BME280;15053;48.618;10.024;2022-12-20T12:02:26;94414.94;;;7.12;80.26
27643;BME280;15053;48.618;10.024;2022-12-20T12:04:58;94413.13;;;7.18;80.53
27643;BME280;15053;48.618;10.024;2022-12-20T12:07:34;94418.31;;;7.12;79.14
27643;BME280;15053;48.618;10.024;2022-12-20T12:10:17;94417.28;;;7.03;79.10
27643;BME280;15053;48.618;10.024;2022-12-20T12:15:39;94392.97;;;6.79;79.76
27643;BME280;15053;48.618;10.024;2022-12-20T12:18:17;94395.28;;;6.71;79.16
27643;BME280;15053;48.618;10.024;2022-12-20T12:23:48;94387.25;;;6.62;79.19
27643;BME280;15053;48.618;10.024;2022-12-20T12:26:25;94395.56;;;6.69;79.30
27643;BME280;15053;48.618;10.024;2022-12-20T12:29:16;94398.66;;;6.66;79.66
27643;BME280;15053;48.618;10.024;2022-12-20T12:31:49;94413.13;;;6.57;79.47
27643;BME280;15053;48.618;10.024;2022-12-20T12:34:48;94394.75;;;6.48;78.93
27643;BME280;15053;48.618;10.024;2022-12-20T12:37:40;94393.97;;;6.38;79.77
27643;BME280;15053;48.618;10.024;2022-12-20T12:41:00;94401.50;;;6.34;79.85
27643;BME280;15053;48.618;10.024;2022-12-20T12:46:15;94383.13;;;6.36;80.13
27643;BME280;15053;48.618;10.024;2022-12-20T12:48:52;94388.03;;;6.37;79.76
27643;BME280;15053;48.618;10.024;2022-12-20T12:51:24;94397.34;;;6.38;80.67
27643;BME280;15053;48.618;10.024;2022-12-20T12:54:01;94390.59;;;6.37;79.70
27643;BME280;15053;48.618;10.024;2022-12-20T12:56:30;94380.03;;;6.29;80.53
27643;BME280;15053;48.618;10.024;2022-12-20T13:09:20;94363.44;;;6.30;80.73
27643;BME280;15053;48.618;10.024;2022-12-20T13:11:48;94356.75;;;6.29;81.13
27643;BME280;15053;48.618;10.024;2022-12-20T13:19:38;94366.03;;;6.30;82.14
27643;BME280;15053;48.618;10.024;2022-12-20T13:27:21;94344.31;;;6.46;81.85
27643;BME280;15053;48.618;10.024;2022-12-20T13:40:29;94357.75;;;6.73;81.68
27643;BME280;15053;48.618;10.024;2022-12-20T13:42:58;94361.13;;;6.79;81.84
27643;BME280;15053;48.618;10.024;2022-12-20T13:45:29;94356.22;;;6.82;82.04
27643;BME280;15053;48.618;10.024;2022-12-20T13:47:59;94354.13;;;6.84;81.82
27643;BME280;15053;48.618;10.024;2022-12-20T13:50:48;94353.63;;;6.87;81.98
27643;BME280;15053;48.618;10.024;2022-12-20T13:53:18;94356.47;;;6.86;81.24
27643;BME280;15053;48.618;10.024;2022-12-20T13:55:45;94362.69;;;6.80;81.62
27643;BME280;15053;48.618;10.024;2022-12-20T13:58:15;94351.06;;;6.77;81.78
27643;BME280;15053;48.618;10.024;2022-12-20T14:00:43;94354.44;;;6.73;81.52
27643;BME280;15053;48.618;10.024;2022-12-20T14:03:21;94359.06;;;6.66;81.57
27643;BME280;15053;48.618;10.024;2022-12-20T14:05:50;94351.03;;;6.62;81.96
27643;BME280;15053;48.618;10.024;2022-12-20T14:08:20;94365.53;;;6.58;82.01
27643;BME280;15053;48.618;10.024;2022-12-20T14:10:51;94367.59;;;6.51;82.06
27643;BME280;15053;48.618;10.024;2022-12-20T14:13:25;94353.91;;;6.45;82.50
27643;BME280;15053;48.618;10.024;2022-12-20T14:15:52;94353.13;;;6.40;82.47
27643;BME280;15053;48.618;10.024;2022-12-20T14:18:24;94352.34;;;6.34;82.12
27643;BME280;15053;48.618;10.024;2022-12-20T14:20:57;94348.44;;;6.27;82.76
27643;BME280;15053;48.618;10.024;2022-12-20T14:23:44;94345.34;;;6.25;82.79
27643;BME280;15053;48.618;10.024;2022-12-20T14:26:23;94347.94;;;6.20;82.91
27643;BME280;15053;48.618;10.024;2022-12-20T14:28:52;94345.84;;;6.17;82.91
27643;BME280;15053;48.618;10.024;2022-12-20T14:34:04;94321.03;;;6.06;83.54
27643;BME280;15053;48.618;10.024;2022-12-20T14:36:31;94322.03;;;6.00;83.64
27643;BME280;15053;48.618;10.024;2022-12-20T14:38:59;94323.84;;;5.94;83.03
27643;BME280;15053;48.618;10.024;2022-12-20T14:41:35;94324.84;;;5.88;83.40
27643;BME280;15053;48.618;10.024;2022-12-20T14:46:33;94328.66;;;5.70;83.46
27643;BME280;15053;48.618;10.024;2022-12-20T14:49:27;94322.94;;;5.63;84.36